createdAt,value
2023-01-11T00:00:21.685Z,49.49
2023-01-11T00:02:59.243Z,49.49
2023-01-11T00:05:33.407Z,49.52
2023-01-11T00:08:07.972Z,48.11
2023-01-11T00:10:41.946Z,48.51
2023-01-11T00:13:15.900Z,48.79
2023-01-11T00:15:49.597Z,48.37
2023-01-11T00:18:22.944Z,48.74
2023-01-11T00:20:56.490Z,48.49
2023-01-11T00:23:29.756Z,48.50
2023-01-11T00:26:05.275Z,48.54
2023-01-11T00:28:38.900Z,48.30
2023-01-11T00:31:12.403Z,48.08
2023-01-11T00:33:45.923Z,47.82
2023-01-11T00:36:19.397Z,48.27
2023-01-11T00:38:54.264Z,48.31
2023-01-11T00:41:45.133Z,48.65
2023-01-11T00:44:36.172Z,48.28
2023-01-11T00:47:30.675Z,48.18
2023-01-11T00:50:04.565Z,48.20
2023-01-11T00:52:38.011Z,48.10
2023-01-11T00:55:12.797Z,48.04
2023-01-11T00:57:46.245Z,48.46
2023-01-11T01:00:22.066Z,48.08
2023-01-11T01:02:55.771Z,47.98
2023-01-11T01:05:29.619Z,46.84
2023-01-11T01:08:02.939Z,47.28
2023-01-11T01:10:36.497Z,47.20
2023-01-11T01:13:29.180Z,47.44
2023-01-11T01:16:02.555Z,48.27
2023-01-11T01:18:36.051Z,47.24
2023-01-11T01:21:09.581Z,47.17
2023-01-11T01:23:42.890Z,47.36
2023-01-11T01:26:16.407Z,47.52
2023-01-11T01:28:50.426Z,47.45
2023-01-11T01:31:24.177Z,47.29
2023-01-11T01:33:57.575Z,47.45
2023-01-11T01:36:30.734Z,47.71
2023-01-11T01:39:05.385Z,47.91
2023-01-11T01:41:39.400Z,47.47
2023-01-11T01:44:48.507Z,47.20
2023-01-11T01:47:24.476Z,47.76
2023-01-11T01:50:00.458Z,47.55
2023-01-11T01:52:36.533Z,47.66
2023-01-11T01:55:13.641Z,48.05
2023-01-11T01:57:47.744Z,47.20
2023-01-11T02:00:22.630Z,47.55
2023-01-11T02:02:57.054Z,47.44
2023-01-11T02:05:30.913Z,47.53
2023-01-11T02:08:07.162Z,47.87
2023-01-11T02:10:41.671Z,47.48
2023-01-11T02:13:15.417Z,47.33
2023-01-11T02:15:51.173Z,47.47
2023-01-11T02:18:24.804Z,47.57
2023-01-11T02:21:04.577Z,47.36
2023-01-11T02:23:55.183Z,47.18
2023-01-11T02:27:06.427Z,47.19
2023-01-11T02:29:45.854Z,47.13
2023-01-11T02:32:25.211Z,47.49
2023-01-11T02:35:05.881Z,47.41
2023-01-11T02:37:44.563Z,47.86
2023-01-11T02:40:20.926Z,47.49
2023-01-11T02:43:14.766Z,47.58
2023-01-11T02:45:52.464Z,47.50
2023-01-11T02:48:30.247Z,47.54
2023-01-11T02:51:07.932Z,47.71
2023-01-11T02:53:45.086Z,47.75
2023-01-11T02:56:23.360Z,47.46
2023-01-11T02:59:01.133Z,47.43
2023-01-11T03:01:34.807Z,47.46
2023-01-11T03:04:12.213Z,47.38
2023-01-11T03:06:44.628Z,47.42
2023-01-11T03:09:22.955Z,47.67
2023-01-11T03:12:22.776Z,47.22
2023-01-11T03:15:00.856Z,47.11
2023-01-11T03:17:41.645Z,47.32
2023-01-11T03:20:18.287Z,47.20
2023-01-11T03:23:01.237Z,46.83
2023-01-11T03:25:39.624Z,47.14
2023-01-11T03:28:17.557Z,47.17
2023-01-11T03:30:54.156Z,47.16
2023-01-11T03:33:30.742Z,46.82
2023-01-11T03:36:07.694Z,47.31
2023-01-11T03:38:44.312Z,47.34
2023-01-11T03:41:20.407Z,47.25
2023-01-11T03:43:56.914Z,46.86
2023-01-11T03:46:33.243Z,46.94
2023-01-11T03:49:09.437Z,47.13
2023-01-11T03:51:45.464Z,46.63
2023-01-11T03:54:21.489Z,46.49
2023-01-11T03:56:58.647Z,46.42
2023-01-11T03:59:32.363Z,46.73
2023-01-11T04:02:06.444Z,47.26
2023-01-11T04:04:40.913Z,47.15
2023-01-11T04:07:15.077Z,47.06
2023-01-11T04:09:48.986Z,47.11
2023-01-11T04:12:22.692Z,46.88
2023-01-11T04:14:56.525Z,47.01
2023-01-11T04:17:30.121Z,47.22
2023-01-11T04:20:03.606Z,46.88
2023-01-11T04:22:36.846Z,47.45
2023-01-11T04:25:11.631Z,46.76
2023-01-11T04:27:45.500Z,47.25
2023-01-11T04:30:19.963Z,46.64
2023-01-11T04:32:53.546Z,46.52
2023-01-11T04:35:27.368Z,46.26
2023-01-11T04:38:01.118Z,46.42
2023-01-11T04:40:34.407Z,46.47
2023-01-11T04:43:07.940Z,47.18
2023-01-11T04:45:41.690Z,46.70
2023-01-11T04:48:14.907Z,46.84
2023-01-11T04:50:50.907Z,46.75
2023-01-11T04:53:24.132Z,47.17
2023-01-11T04:55:58.970Z,47.15
2023-01-11T04:58:32.953Z,47.22
2023-01-11T05:01:12.378Z,47.37
2023-01-11T05:03:46.532Z,47.14
2023-01-11T05:06:21.731Z,47.60
2023-01-11T05:08:55.072Z,47.39
2023-01-11T05:11:28.466Z,47.61
2023-01-11T05:14:01.919Z,47.49
2023-01-11T05:16:35.491Z,47.64
2023-01-11T05:19:08.944Z,47.75
2023-01-11T05:21:43.018Z,47.87
2023-01-11T05:24:18.211Z,48.15
2023-01-11T05:26:52.774Z,47.87
2023-01-11T05:29:26.603Z,47.96
2023-01-11T05:31:59.957Z,48.12
2023-01-11T05:34:33.525Z,48.15
2023-01-11T05:37:07.032Z,48.34
2023-01-11T05:39:40.462Z,48.48
2023-01-11T05:42:13.749Z,48.73
2023-01-11T05:45:04.967Z,48.73
2023-01-11T05:47:38.331Z,48.98
2023-01-11T05:50:13.883Z,49.19
2023-01-11T05:52:47.092Z,49.21
2023-01-11T05:55:20.714Z,49.55
2023-01-11T05:57:54.338Z,49.45
2023-01-11T06:00:28.517Z,49.63
2023-01-11T06:03:03.333Z,49.81
2023-01-11T06:05:38.771Z,49.59
2023-01-11T06:08:12.939Z,49.47
2023-01-11T06:10:48.059Z,49.85
2023-01-11T06:13:28.040Z,49.92
2023-01-11T06:16:03.511Z,50.13
2023-01-11T06:18:38.275Z,50.09
2023-01-11T06:21:12.836Z,50.04
2023-01-11T06:23:47.536Z,49.93
2023-01-11T06:26:23.637Z,50.10
2023-01-11T06:28:57.114Z,50.20
2023-01-11T06:31:30.478Z,50.28
2023-01-11T06:34:04.041Z,50.37
2023-01-11T06:36:39.380Z,50.21
2023-01-11T06:39:12.818Z,50.08
2023-01-11T06:41:46.299Z,50.08
2023-01-11T06:44:19.986Z,50.16
2023-01-11T06:46:53.377Z,50.50
2023-01-11T06:49:26.764Z,50.42
2023-01-11T06:52:00.173Z,50.36
2023-01-11T06:54:33.505Z,50.59
2023-01-11T06:57:06.858Z,50.66
2023-01-11T06:59:40.585Z,50.35
2023-01-11T07:02:14.023Z,50.23
2023-01-11T07:04:47.535Z,50.47
2023-01-11T07:07:21.305Z,50.54
2023-01-11T07:09:55.776Z,50.46
2023-01-11T07:12:29.284Z,50.43
2023-01-11T07:15:02.721Z,50.29
2023-01-11T07:17:36.531Z,50.49
2023-01-11T07:20:12.724Z,50.38
2023-01-11T07:22:46.266Z,50.47
2023-01-11T07:25:19.884Z,50.61
2023-01-11T07:27:58.223Z,50.87
2023-01-11T07:30:41.892Z,50.76
2023-01-11T07:33:10.463Z,50.76
2023-01-11T07:35:43.819Z,50.83
2023-01-11T07:38:17.175Z,51.03
2023-01-11T07:40:53.766Z,50.96
2023-01-11T07:43:27.084Z,50.97
2023-01-11T07:46:00.643Z,51.16
2023-01-11T07:48:34.008Z,51.33
2023-01-11T07:51:07.420Z,51.19
2023-01-11T07:53:40.823Z,50.96
2023-01-11T07:56:14.325Z,50.50
2023-01-11T07:58:47.978Z,50.72
2023-01-11T08:01:21.554Z,50.58
2023-01-11T08:03:55.097Z,50.60
2023-01-11T08:06:28.709Z,50.68
2023-01-11T08:09:02.182Z,50.80
2023-01-11T08:11:53.089Z,50.93
2023-01-11T08:14:41.465Z,50.87
2023-01-11T08:17:16.337Z,50.94
2023-01-11T08:19:49.616Z,51.24
2023-01-11T08:22:23.179Z,51.18
2023-01-11T08:24:56.452Z,51.06
2023-01-11T08:27:29.840Z,51.09
2023-01-11T08:30:03.362Z,50.91
2023-01-11T08:32:36.574Z,50.85
2023-01-11T08:35:11.402Z,50.75
2023-01-11T08:37:45.036Z,50.75
2023-01-11T08:40:19.797Z,50.63
2023-01-11T08:42:57.335Z,50.67
2023-01-11T08:45:30.943Z,50.92
2023-01-11T08:48:04.471Z,51.11
2023-01-11T08:50:37.940Z,51.11
2023-01-11T08:53:12.269Z,50.68
2023-01-11T08:55:47.221Z,50.88
2023-01-11T08:58:21.652Z,50.91
2023-01-11T09:00:55.115Z,50.78
2023-01-11T09:03:28.812Z,50.93
2023-01-11T09:06:02.651Z,50.90
2023-01-11T09:08:36.079Z,50.87
2023-01-11T09:11:11.693Z,51.00
2023-01-11T09:13:45.523Z,50.91
2023-01-11T09:16:19.037Z,50.59
2023-01-11T09:18:52.769Z,50.64
2023-01-11T09:21:26.151Z,50.72
2023-01-11T09:23:59.512Z,50.84
2023-01-11T09:26:33.058Z,50.89
2023-01-11T09:29:06.702Z,50.71
2023-01-11T09:31:39.919Z,50.94
2023-01-11T09:34:13.950Z,51.07
2023-01-11T09:36:49.118Z,51.21
2023-01-11T09:39:24.847Z,51.48
2023-01-11T09:42:24.508Z,51.66
2023-01-11T09:45:02.822Z,52.04
2023-01-11T09:47:41.219Z,52.32
2023-01-11T09:50:19.908Z,52.57
2023-01-11T09:52:56.157Z,52.62
2023-01-11T09:55:35.052Z,52.63
2023-01-11T09:58:22.734Z,52.81
2023-01-11T10:01:01.448Z,52.87
2023-01-11T10:04:03.066Z,52.97
2023-01-11T10:06:42.485Z,52.90
2023-01-11T10:18:29.962Z,52.88
2023-01-11T10:18:34.256Z,53.03
2023-01-11T10:20:24.399Z,52.78
2023-01-11T10:23:04.316Z,52.60
2023-01-11T10:25:42.839Z,52.45
2023-01-11T10:28:20.849Z,52.06
2023-01-11T10:31:04.342Z,51.82
2023-01-11T10:33:48.266Z,51.98
2023-01-11T10:36:33.509Z,51.69
2023-01-11T10:39:14.750Z,51.38
2023-01-11T10:41:53.688Z,51.41
2023-01-11T10:44:32.579Z,51.68
2023-01-11T10:47:08.205Z,51.56
2023-01-11T10:49:46.742Z,51.46
2023-01-11T10:52:32.885Z,51.23
2023-01-11T10:55:15.743Z,51.40
2023-01-11T10:57:59.704Z,51.34
2023-01-11T11:00:38.216Z,51.30
2023-01-11T11:03:25.522Z,51.38
2023-01-11T11:05:58.846Z,51.26
2023-01-11T11:08:34.807Z,51.12
2023-01-11T11:11:11.242Z,51.28
2023-01-11T11:13:49.907Z,51.17
2023-01-11T11:16:32.575Z,51.36
2023-01-11T11:19:06.355Z,51.43
2023-01-11T11:21:42.753Z,51.55
2023-01-11T11:24:23.119Z,51.77
2023-01-11T11:27:00.120Z,51.81
2023-01-11T11:29:33.670Z,51.69
2023-01-11T11:32:08.757Z,51.56
2023-01-11T11:34:48.726Z,51.72
2023-01-11T11:37:28.685Z,51.70
2023-01-11T11:40:02.195Z,51.45
2023-01-11T11:42:35.743Z,51.53
2023-01-11T11:45:18.706Z,51.82
2023-01-11T11:48:12.163Z,52.04
2023-01-11T11:50:46.728Z,52.10
2023-01-11T11:53:30.977Z,52.08
2023-01-11T11:56:10.233Z,52.10
2023-01-11T11:58:45.044Z,52.09
2023-01-11T12:01:31.685Z,52.19
2023-01-11T12:04:07.393Z,52.10
2023-01-11T12:06:41.986Z,52.07
2023-01-11T12:09:20.309Z,52.24
2023-01-11T12:11:54.086Z,52.62
2023-01-11T12:14:30.295Z,53.16
2023-01-11T12:17:10.294Z,54.19
2023-01-11T12:19:47.578Z,54.89
2023-01-11T12:22:23.265Z,55.40
2023-01-11T12:25:08.760Z,56.20
2023-01-11T12:27:45.580Z,56.75
2023-01-11T12:30:28.766Z,57.47
2023-01-11T12:36:16.945Z,58.55
2023-01-11T12:38:56.923Z,58.99
2023-01-11T12:41:47.534Z,59.43
2023-01-11T12:44:31.479Z,59.90
2023-01-11T12:47:16.203Z,60.12
2023-01-11T12:53:03.923Z,60.72
2023-01-11T12:56:01.995Z,60.90
2023-01-11T12:58:38.062Z,60.87
2023-01-11T13:01:18.803Z,61.01
2023-01-11T13:04:12.281Z,61.19
2023-01-11T13:06:49.367Z,61.29
2023-01-11T13:09:27.664Z,61.32
2023-01-11T13:12:04.606Z,61.34
2023-01-11T13:14:48.330Z,61.49
2023-01-11T13:17:26.917Z,61.50
2023-01-11T13:20:23.371Z,61.49
2023-01-11T13:23:00.138Z,61.51
2023-01-11T13:25:36.691Z,61.61
2023-01-11T13:28:20.168Z,61.69
2023-01-11T13:30:51.568Z,61.73
2023-01-11T13:33:27.492Z,61.66
2023-01-11T13:36:09.702Z,61.85
2023-01-11T13:38:43.587Z,61.81
2023-01-11T13:41:20.914Z,61.80
2023-01-11T13:43:58.282Z,62.02
2023-01-11T13:46:47.629Z,62.28
2023-01-11T13:49:28.324Z,62.47
2023-01-11T13:52:04.105Z,62.55
2023-01-11T13:54:41.736Z,62.65
2023-01-11T13:57:18.603Z,62.82
2023-01-11T13:59:55.280Z,62.81
2023-01-11T14:02:31.428Z,62.77
2023-01-11T14:05:08.025Z,62.81
2023-01-11T14:07:47.047Z,62.87
2023-01-11T14:10:32.685Z,62.49
2023-01-11T14:13:24.534Z,62.43
2023-01-11T14:16:01.311Z,62.04
2023-01-11T14:18:38.487Z,61.85
2023-01-11T14:21:14.851Z,61.79
2023-01-11T14:23:51.196Z,61.74
2023-01-11T14:27:05.603Z,61.42
2023-01-11T14:30:05.305Z,61.46
2023-01-11T14:33:03.885Z,61.32
2023-01-11T14:35:56.454Z,60.98
2023-01-11T14:39:14.027Z,60.95
2023-01-11T14:42:30.428Z,61.06
2023-01-11T14:47:54.387Z,60.87
2023-01-11T14:50:33.497Z,60.68
2023-01-11T14:53:09.971Z,60.49
2023-01-11T14:55:46.786Z,60.35
2023-01-11T14:58:23.400Z,60.27
2023-01-11T15:01:15.450Z,60.09
2023-01-11T15:03:59.770Z,59.91
2023-01-11T15:06:35.891Z,59.69
2023-01-11T15:09:11.896Z,59.50
2023-01-11T15:11:45.293Z,59.35
2023-01-11T15:17:45.049Z,58.53
2023-01-11T15:20:20.804Z,58.34
2023-01-11T15:23:00.072Z,58.28
2023-01-11T15:25:36.013Z,58.39
2023-01-11T15:28:23.533Z,58.20
2023-01-11T15:30:57.190Z,58.24
2023-01-11T15:33:48.302Z,58.30
2023-01-11T15:36:25.517Z,58.46
2023-01-11T15:39:02.595Z,58.50
2023-01-11T15:41:57.368Z,58.63
2023-01-11T15:44:39.031Z,58.58
2023-01-11T15:47:35.053Z,58.74
2023-01-11T15:50:43.020Z,58.83
2023-01-11T15:53:52.611Z,59.03
2023-01-11T15:56:53.658Z,59.09
2023-01-11T16:00:13.232Z,59.17
2023-01-11T16:03:21.852Z,59.16
2023-01-11T16:06:00.378Z,59.47
2023-01-11T16:08:37.033Z,59.47
2023-01-11T16:11:16.988Z,59.54
2023-01-11T16:16:59.658Z,59.84
2023-01-11T16:19:35.971Z,59.94
2023-01-11T16:22:13.181Z,60.06
2023-01-11T16:24:49.078Z,60.08
2023-01-11T16:27:26.377Z,60.23
2023-01-11T16:30:00.041Z,60.26
2023-01-11T16:32:34.945Z,60.26
2023-01-11T16:35:21.856Z,60.33
2023-01-11T16:37:58.349Z,60.24
2023-01-11T16:40:34.890Z,60.22
2023-01-11T16:43:11.586Z,60.13
2023-01-11T16:45:47.104Z,60.10
2023-01-11T16:48:22.025Z,60.09
2023-01-11T16:51:03.893Z,59.96
2023-01-11T16:53:40.033Z,59.92
2023-01-11T16:56:18.636Z,59.80
2023-01-11T16:59:06.106Z,59.53
2023-01-11T17:01:52.872Z,59.25
2023-01-11T17:04:32.453Z,59.23
2023-01-11T17:07:14.862Z,59.09
2023-01-11T17:09:48.210Z,58.90
2023-01-11T17:12:24.001Z,58.78
2023-01-11T17:15:06.048Z,58.63
2023-01-11T17:17:40.524Z,58.42
2023-01-11T17:20:19.051Z,58.39
2023-01-11T17:22:54.356Z,58.37
2023-01-11T17:25:43.577Z,58.18
2023-01-11T17:28:07.943Z,58.04
2023-01-11T17:30:42.689Z,58.06
2023-01-11T17:33:27.995Z,57.84
2023-01-11T17:36:03.175Z,57.69
2023-01-11T17:38:36.800Z,57.48
2023-01-11T17:41:13.572Z,57.28
2023-01-11T17:44:05.990Z,57.20
2023-01-11T17:46:40.961Z,57.04
2023-01-11T17:49:22.789Z,56.94
2023-01-11T17:51:56.055Z,56.85
2023-01-11T17:54:29.851Z,56.64
2023-01-11T17:57:04.122Z,56.12
2023-01-11T17:59:38.823Z,55.77
2023-01-11T18:02:16.125Z,55.64
2023-01-11T18:04:51.874Z,55.68
2023-01-11T18:07:26.102Z,55.61
2023-01-11T18:10:03.806Z,55.35
2023-01-11T18:12:37.544Z,55.21
2023-01-11T18:15:22.765Z,55.11
2023-01-11T18:17:57.670Z,55.09
2023-01-11T18:20:39.729Z,55.32
2023-01-11T18:23:24.826Z,55.25
2023-01-11T18:26:28.294Z,55.10
2023-01-11T18:29:01.641Z,54.90
2023-01-11T18:31:35.248Z,54.98
2023-01-11T18:34:10.515Z,54.94
2023-01-11T18:36:43.860Z,54.95
2023-01-11T18:39:18.555Z,54.82
2023-01-11T18:42:10.606Z,54.87
2023-01-11T18:44:46.360Z,55.10
2023-01-11T18:47:21.967Z,55.17
2023-01-11T18:49:55.728Z,55.04
2023-01-11T18:52:29.837Z,55.11
2023-01-11T18:55:03.252Z,55.01
2023-01-11T18:57:36.692Z,55.07
2023-01-11T19:00:13.747Z,54.97
2023-01-11T19:02:47.299Z,55.05
2023-01-11T19:05:21.262Z,54.96
2023-01-11T19:07:54.803Z,54.95
2023-01-11T19:10:28.961Z,54.66
2023-01-11T19:13:02.691Z,54.65
2023-01-11T19:15:38.244Z,54.80
2023-01-11T19:18:11.857Z,55.05
2023-01-11T19:20:48.243Z,55.06
2023-01-11T19:26:01.426Z,54.80
2023-01-11T19:28:34.723Z,54.90
2023-01-11T19:31:11.433Z,55.20
2023-01-11T19:33:44.952Z,55.10
2023-01-11T19:36:18.351Z,55.50
2023-01-11T19:38:52.671Z,55.66
2023-01-11T19:41:26.393Z,55.83
2023-01-11T19:43:59.908Z,55.75
2023-01-11T19:46:33.196Z,55.73
2023-01-11T19:49:07.182Z,55.74
2023-01-11T19:51:40.702Z,55.96
2023-01-11T19:54:14.933Z,55.91
2023-01-11T19:56:49.064Z,55.96
2023-01-11T19:59:23.411Z,56.21
2023-01-11T20:01:56.868Z,56.38
2023-01-11T20:04:30.295Z,56.52
2023-01-11T20:07:03.939Z,56.71
2023-01-11T20:09:38.034Z,56.80
2023-01-11T20:12:13.306Z,56.97
2023-01-11T20:14:46.995Z,57.14
2023-01-11T20:17:21.388Z,57.34
2023-01-11T20:19:55.410Z,57.47
2023-01-11T20:22:29.594Z,57.54
2023-01-11T20:25:02.923Z,57.59
2023-01-11T20:27:36.122Z,57.65
2023-01-11T20:30:11.684Z,57.93
2023-01-11T20:32:46.316Z,58.45
2023-01-11T20:35:19.796Z,58.77
2023-01-11T20:37:54.004Z,59.16
2023-01-11T20:40:27.311Z,59.33
2023-01-11T20:43:00.779Z,59.49
2023-01-11T20:45:34.902Z,59.45
2023-01-11T20:48:08.900Z,59.33
2023-01-11T20:50:42.221Z,59.18
2023-01-11T20:53:16.115Z,58.83
2023-01-11T20:55:49.614Z,58.58
2023-01-11T20:58:23.499Z,58.34
2023-01-11T21:00:56.995Z,58.14
2023-01-11T21:03:31.191Z,57.94
2023-01-11T21:06:06.484Z,57.78
2023-01-11T21:08:40.193Z,57.50
2023-01-11T21:11:15.594Z,57.43
2023-01-11T21:13:48.931Z,57.44
2023-01-11T21:16:24.611Z,57.20
2023-01-11T21:18:59.818Z,56.93
2023-01-11T21:21:37.676Z,57.00
2023-01-11T21:24:14.527Z,56.91
2023-01-11T21:26:48.438Z,57.03
2023-01-11T21:29:21.815Z,56.84
2023-01-11T21:31:55.252Z,56.71
2023-01-11T21:34:28.694Z,56.93
2023-01-11T21:37:02.025Z,57.04
2023-01-11T21:39:35.828Z,57.08
2023-01-11T21:42:09.487Z,57.19
2023-01-11T21:44:43.151Z,57.20
2023-01-11T21:47:18.095Z,57.23
2023-01-11T21:49:51.792Z,57.47
2023-01-11T21:52:25.253Z,57.67
2023-01-11T21:54:58.668Z,58.04
2023-01-11T21:57:34.040Z,58.23
2023-01-11T22:00:08.524Z,58.40
2023-01-11T22:02:43.656Z,58.48
2023-01-11T22:05:17.387Z,58.60
2023-01-11T22:07:50.708Z,58.69
2023-01-11T22:10:26.801Z,58.75
2023-01-11T22:13:00.128Z,58.77
2023-01-11T22:15:33.574Z,58.87
2023-01-11T22:18:08.153Z,58.85
2023-01-11T22:20:41.649Z,58.87
2023-01-11T22:23:15.482Z,58.82
2023-01-11T22:25:48.870Z,58.84
2023-01-11T22:28:22.335Z,58.75
2023-01-11T22:30:55.852Z,58.69
2023-01-11T22:33:29.305Z,58.62
2023-01-11T22:36:04.546Z,58.39
2023-01-11T22:38:37.953Z,58.19
2023-01-11T22:41:12.147Z,58.00
2023-01-11T22:43:45.932Z,57.96
2023-01-11T22:46:21.160Z,57.76
2023-01-11T22:48:54.980Z,57.58
2023-01-11T22:51:28.997Z,57.48
2023-01-11T22:54:02.247Z,57.43
2023-01-11T22:56:35.809Z,57.50
2023-01-11T22:59:10.224Z,57.21
2023-01-11T23:01:44.490Z,57.01
2023-01-11T23:04:18.237Z,57.02
2023-01-11T23:06:51.527Z,56.90
2023-01-11T23:09:25.465Z,56.79
2023-01-11T23:12:16.813Z,56.88
2023-01-11T23:14:50.371Z,57.02
2023-01-11T23:17:23.551Z,56.72
2023-01-11T23:19:57.305Z,56.67
2023-01-11T23:22:30.899Z,56.72
2023-01-11T23:25:04.512Z,56.67
2023-01-11T23:27:38.079Z,56.52
2023-01-11T23:30:14.239Z,56.46
2023-01-11T23:32:47.613Z,56.38
2023-01-11T23:35:21.346Z,56.44
2023-01-11T23:37:57.473Z,56.58
2023-01-11T23:40:32.591Z,56.47
2023-01-11T23:43:06.268Z,56.49
2023-01-11T23:45:40.874Z,56.26
2023-01-11T23:48:14.390Z,56.15
2023-01-11T23:50:47.776Z,56.39
2023-01-11T23:53:23.142Z,56.47
2023-01-11T23:55:58.325Z,56.31
2023-01-11T23:58:32.632Z,56.39
